createdAt,value
2022-08-20T00:00:37.299Z,94.22
2022-08-20T00:01:33.333Z,94.53
2022-08-20T00:02:28.491Z,94.71
2022-08-20T00:03:25.684Z,94.67
2022-08-20T00:04:19.451Z,94.40
2022-08-20T00:05:14.871Z,94.16
2022-08-20T00:06:10.505Z,94.16
2022-08-20T00:07:05.673Z,94.22
2022-08-20T00:08:01.507Z,94.09
2022-08-20T00:08:56.684Z,94.09
2022-08-20T00:09:51.988Z,94.18
2022-08-20T00:10:49.019Z,94.26
2022-08-20T00:11:43.956Z,94.35
2022-08-20T00:12:38.186Z,94.28
2022-08-20T00:13:33.210Z,94.29
2022-08-20T00:14:28.279Z,94.28
2022-08-20T00:15:23.363Z,94.36
2022-08-20T00:16:18.417Z,94.35
2022-08-20T00:17:13.470Z,94.36
2022-08-20T00:18:08.512Z,94.35
2022-08-20T00:19:03.579Z,94.29
2022-08-20T00:20:01.707Z,94.14
2022-08-20T00:20:56.724Z,94.08
2022-08-20T00:21:51.821Z,94.08
2022-08-20T00:22:47.868Z,94.08
2022-08-20T00:23:41.858Z,94.06
2022-08-20T00:24:37.310Z,94.11
2022-08-20T00:25:32.666Z,94.13
2022-08-20T00:26:27.676Z,94.16
2022-08-20T00:27:24.334Z,94.27
2022-08-20T00:28:19.532Z,94.27
2022-08-20T00:29:15.255Z,94.28
2022-08-20T00:30:10.415Z,94.28
2022-08-20T00:31:05.626Z,94.35
2022-08-20T00:32:01.356Z,94.34
2022-08-20T00:32:56.545Z,94.19
2022-08-20T00:33:52.385Z,94.11
2022-08-20T00:34:47.543Z,94.05
2022-08-20T00:35:42.873Z,94.07
2022-08-20T00:36:38.613Z,94.10
2022-08-20T00:37:33.785Z,94.19
2022-08-20T00:38:29.053Z,94.16
2022-08-20T00:39:24.356Z,93.98
2022-08-20T00:40:22.445Z,93.98
2022-08-20T00:41:14.795Z,93.93
2022-08-20T00:42:10.010Z,93.91
2022-08-20T00:43:05.869Z,93.93
2022-08-20T00:44:01.575Z,93.93
2022-08-20T00:44:56.401Z,93.96
2022-08-20T00:45:52.120Z,94.04
2022-08-20T00:46:47.562Z,94.16
2022-08-20T00:47:51.513Z,94.19
2022-08-20T00:48:38.843Z,94.16
2022-08-20T00:49:32.942Z,94.27
2022-08-20T00:50:27.960Z,94.18
2022-08-20T00:51:23.019Z,94.11
2022-08-20T00:52:18.051Z,94.08
2022-08-20T00:53:13.099Z,94.12
2022-08-20T00:54:08.137Z,94.05
2022-08-20T00:55:03.326Z,94.05
2022-08-20T00:55:58.368Z,94.14
2022-08-20T00:56:53.432Z,94.22
2022-08-20T00:58:00.522Z,94.22
2022-08-20T00:58:45.087Z,94.34
2022-08-20T00:59:39.287Z,94.42
2022-08-20T01:00:34.470Z,94.54
2022-08-20T01:01:29.743Z,94.56
2022-08-20T01:02:24.978Z,94.47
2022-08-20T01:03:20.144Z,94.37
2022-08-20T01:04:15.425Z,94.25
2022-08-20T01:05:10.445Z,94.34
2022-08-20T01:06:05.486Z,94.30
2022-08-20T01:07:00.512Z,94.28
2022-08-20T01:07:55.592Z,94.30
2022-08-20T01:08:50.561Z,94.22
2022-08-20T01:09:57.532Z,94.19
2022-08-20T01:10:41.641Z,94.14
2022-08-20T01:11:37.087Z,94.19
2022-08-20T01:12:31.498Z,93.84
2022-08-20T01:13:26.573Z,93.67
2022-08-20T01:14:22.288Z,93.65
2022-08-20T01:15:17.494Z,93.63
2022-08-20T01:16:13.210Z,93.58
2022-08-20T01:17:08.405Z,93.60
2022-08-20T01:18:03.710Z,93.64
2022-08-20T01:18:59.440Z,93.70
2022-08-20T01:19:54.664Z,93.75
2022-08-20T01:20:49.835Z,93.82
2022-08-20T01:21:49.664Z,93.90
2022-08-20T01:22:42.458Z,93.92
2022-08-20T01:23:37.269Z,93.96
2022-08-20T01:24:32.568Z,93.91
2022-08-20T01:25:27.862Z,93.97
2022-08-20T01:26:23.625Z,94.01
2022-08-20T01:27:18.783Z,93.93
2022-08-20T01:28:14.665Z,93.79
2022-08-20T01:29:09.954Z,93.77
2022-08-20T01:30:06.091Z,93.80
2022-08-20T01:31:01.147Z,94.05
2022-08-20T01:31:56.315Z,94.08
2022-08-20T01:32:51.489Z,94.04
2022-08-20T01:33:48.004Z,93.99
2022-08-20T01:34:43.324Z,94.03
2022-08-20T01:35:39.078Z,94.06
2022-08-20T01:36:34.206Z,94.04
2022-08-20T01:37:31.433Z,94.03
2022-08-20T01:38:25.227Z,94.06
2022-08-20T01:39:20.427Z,94.02
2022-08-20T01:40:16.237Z,94.11
2022-08-20T01:41:11.408Z,94.10
2022-08-20T01:42:06.733Z,94.05
2022-08-20T01:43:02.593Z,93.97
2022-08-20T01:43:58.281Z,93.75
2022-08-20T01:44:53.043Z,93.67
2022-08-20T01:45:48.703Z,93.79
2022-08-20T01:46:43.873Z,93.86
2022-08-20T01:47:38.524Z,93.95
2022-08-20T01:48:33.288Z,93.96
2022-08-20T01:49:28.344Z,93.77
2022-08-20T01:50:23.414Z,93.62
2022-08-20T01:51:18.514Z,93.34
2022-08-20T01:52:13.505Z,93.09
2022-08-20T01:53:08.562Z,93.09
2022-08-20T01:54:03.568Z,93.18
2022-08-20T01:54:58.609Z,93.29
2022-08-20T01:55:56.019Z,93.09
2022-08-20T01:56:51.090Z,93.18
2022-08-20T01:57:46.272Z,93.13
2022-08-20T01:58:41.285Z,93.04
2022-08-20T01:59:36.397Z,92.98
2022-08-20T02:00:31.488Z,92.87
2022-08-20T02:01:26.618Z,92.70
2022-08-20T02:02:21.586Z,92.62
2022-08-20T02:03:16.697Z,92.55
2022-08-20T02:04:15.170Z,92.57
2022-08-20T02:05:06.806Z,92.57
2022-08-20T02:06:01.930Z,92.55
2022-08-20T02:06:57.962Z,92.63
2022-08-20T02:07:52.606Z,92.65
2022-08-20T02:08:47.775Z,92.52
2022-08-20T02:09:43.494Z,92.55
2022-08-20T02:10:38.725Z,92.55
2022-08-20T02:11:34.713Z,92.54
2022-08-20T02:12:29.733Z,92.63
2022-08-20T02:13:24.926Z,92.47
2022-08-20T02:14:20.159Z,92.43
2022-08-20T02:15:15.293Z,92.48
2022-08-20T02:16:11.294Z,92.49
2022-08-20T02:17:06.422Z,92.39
2022-08-20T02:18:02.242Z,92.42
2022-08-20T02:18:57.483Z,92.42
2022-08-20T02:19:52.751Z,92.29
2022-08-20T02:20:48.561Z,92.18
2022-08-20T02:21:43.676Z,92.18
2022-08-20T02:22:38.882Z,92.21
2022-08-20T02:23:35.231Z,92.25
2022-08-20T02:24:30.491Z,92.46
2022-08-20T02:25:26.280Z,92.36
2022-08-20T02:26:21.384Z,92.21
2022-08-20T02:27:16.495Z,92.14
2022-08-20T02:28:12.322Z,92.29
2022-08-20T02:29:07.568Z,92.22
2022-08-20T02:30:02.686Z,92.04
2022-08-20T02:30:57.787Z,92.04
2022-08-20T02:32:24.797Z,92.05
2022-08-20T02:32:49.000Z,92.04
2022-08-20T02:33:43.052Z,92.15
2022-08-20T02:34:39.925Z,92.12
2022-08-20T02:35:33.934Z,92.30
2022-08-20T02:36:28.920Z,92.39
2022-08-20T02:37:24.006Z,92.28
2022-08-20T02:38:19.126Z,92.16
2022-08-20T02:39:14.206Z,92.19
2022-08-20T02:40:10.154Z,92.66
2022-08-20T02:41:05.086Z,92.45
2022-08-20T02:42:00.350Z,92.32
2022-08-20T02:42:55.557Z,92.34
2022-08-20T02:43:50.632Z,92.33
2022-08-20T02:44:45.777Z,92.16
2022-08-20T02:45:40.755Z,92.29
2022-08-20T02:46:35.832Z,92.32
2022-08-20T02:47:30.954Z,92.42
2022-08-20T02:48:26.035Z,92.25
2022-08-20T02:49:21.035Z,92.20
2022-08-20T02:50:16.130Z,92.10
2022-08-20T02:51:11.214Z,92.16
2022-08-20T02:52:06.219Z,92.08
2022-08-20T02:53:01.304Z,92.07
2022-08-20T02:53:56.403Z,91.99
2022-08-20T02:54:56.922Z,91.84
2022-08-20T02:55:51.986Z,91.95
2022-08-20T02:56:47.191Z,92.08
2022-08-20T02:57:42.301Z,92.29
2022-08-20T02:58:37.549Z,92.34
2022-08-20T02:59:32.912Z,92.24
2022-08-20T03:00:27.886Z,92.33
2022-08-20T03:01:23.119Z,92.43
2022-08-20T03:02:18.350Z,92.32
2022-08-20T03:03:14.271Z,92.08
2022-08-20T03:04:09.639Z,92.23
2022-08-20T03:05:05.509Z,92.39
2022-08-20T03:06:00.581Z,92.43
2022-08-20T03:06:55.962Z,92.53
2022-08-20T03:07:51.718Z,92.62
2022-08-20T03:08:46.837Z,92.60
2022-08-20T03:09:42.066Z,92.56
2022-08-20T03:10:38.271Z,92.55
2022-08-20T03:11:33.547Z,92.56
2022-08-20T03:12:29.322Z,92.55
2022-08-20T03:13:24.526Z,92.44
2022-08-20T03:14:19.664Z,92.48
2022-08-20T03:15:17.439Z,92.54
2022-08-20T03:16:10.747Z,92.48
2022-08-20T03:17:06.535Z,92.41
2022-08-20T03:18:01.642Z,92.19
2022-08-20T03:18:57.134Z,92.15
2022-08-20T03:19:52.599Z,92.19
2022-08-20T03:20:47.785Z,92.07
2022-08-20T03:21:43.113Z,92.09
2022-08-20T03:22:38.294Z,92.30
2022-08-20T03:23:34.133Z,92.56
2022-08-20T03:24:29.332Z,92.59
2022-08-20T03:25:24.490Z,92.56
2022-08-20T03:26:21.014Z,92.30
2022-08-20T03:27:16.325Z,92.13
2022-08-20T03:28:12.160Z,92.13
2022-08-20T03:29:07.301Z,92.15
2022-08-20T03:30:02.445Z,92.20
2022-08-20T03:30:58.268Z,92.22
2022-08-20T03:31:53.552Z,92.30
2022-08-20T03:32:49.512Z,92.32
2022-08-20T03:33:49.015Z,92.32
2022-08-20T03:34:40.891Z,92.28
2022-08-20T03:35:35.812Z,92.33
2022-08-20T03:36:31.096Z,92.38
2022-08-20T03:37:26.499Z,92.45
2022-08-20T03:38:32.499Z,92.36
2022-08-20T03:39:18.869Z,92.33
2022-08-20T03:40:13.734Z,92.57
2022-08-20T03:41:08.843Z,92.51
2022-08-20T03:42:04.290Z,92.59
2022-08-20T03:42:59.368Z,92.77
2022-08-20T03:43:54.405Z,92.59
2022-08-20T03:44:59.267Z,92.57
2022-08-20T03:45:49.980Z,92.57
2022-08-20T03:46:45.777Z,92.57
2022-08-20T03:47:40.896Z,92.51
2022-08-20T03:48:37.356Z,92.46
2022-08-20T03:49:32.604Z,92.44
2022-08-20T03:50:28.419Z,92.38
2022-08-20T03:51:23.616Z,92.33
2022-08-20T03:52:18.884Z,92.44
2022-08-20T03:53:14.756Z,92.43
2022-08-20T03:54:09.846Z,92.43
2022-08-20T03:55:05.704Z,92.49
2022-08-20T03:56:02.412Z,92.48
2022-08-20T03:56:56.324Z,92.58
2022-08-20T03:57:52.140Z,92.58
2022-08-20T03:58:47.218Z,92.58
2022-08-20T03:59:42.367Z,92.59
2022-08-20T04:00:38.923Z,92.56
2022-08-20T04:01:46.422Z,92.63
2022-08-20T04:02:30.860Z,92.78
2022-08-20T04:03:25.052Z,92.94
2022-08-20T04:04:20.301Z,92.91
2022-08-20T04:05:15.572Z,92.97
2022-08-20T04:06:10.762Z,93.04
2022-08-20T04:07:05.890Z,92.92
2022-08-20T04:08:03.075Z,92.81
2022-08-20T04:08:56.974Z,92.78
2022-08-20T04:09:52.239Z,93.09
2022-08-20T04:10:47.400Z,92.94
2022-08-20T04:11:43.248Z,92.96
2022-08-20T04:12:38.504Z,93.03
2022-08-20T04:13:33.596Z,93.09
2022-08-20T04:14:29.207Z,93.06
2022-08-20T04:15:23.924Z,93.18
2022-08-20T04:16:19.454Z,92.93
2022-08-20T04:17:13.989Z,92.93
2022-08-20T04:18:09.037Z,92.87
2022-08-20T04:19:04.114Z,92.87
2022-08-20T04:19:59.193Z,92.91
2022-08-20T04:20:54.258Z,92.77
2022-08-20T04:21:49.337Z,92.74
2022-08-20T04:22:44.409Z,92.81
2022-08-20T04:23:40.510Z,92.78
2022-08-20T04:24:34.521Z,92.82
2022-08-20T04:25:30.055Z,92.75
2022-08-20T04:26:25.638Z,92.72
2022-08-20T04:27:19.720Z,92.55
2022-08-20T04:28:14.689Z,92.55
2022-08-20T04:29:09.677Z,92.57
2022-08-20T04:30:04.944Z,92.53
2022-08-20T04:31:00.195Z,92.54
2022-08-20T04:31:55.623Z,92.53
2022-08-20T04:32:50.775Z,92.55
2022-08-20T04:33:46.243Z,92.59
2022-08-20T04:34:41.462Z,92.73
2022-08-20T04:35:36.741Z,92.69
2022-08-20T04:36:32.073Z,92.68
2022-08-20T04:37:27.358Z,92.66
2022-08-20T04:38:22.659Z,92.61
2022-08-20T04:39:18.064Z,92.50
2022-08-20T04:40:13.414Z,92.50
2022-08-20T04:41:08.854Z,92.39
2022-08-20T04:42:05.059Z,92.52
2022-08-20T04:42:59.393Z,92.51
2022-08-20T04:43:54.753Z,92.57
2022-08-20T04:44:50.017Z,92.69
2022-08-20T04:45:45.238Z,92.69
2022-08-20T04:46:40.540Z,92.62
2022-08-20T04:47:35.832Z,92.60
2022-08-20T04:48:31.159Z,92.72
2022-08-20T04:49:26.581Z,92.69
2022-08-20T04:50:21.768Z,92.74
2022-08-20T04:51:17.105Z,92.86
2022-08-20T04:52:12.176Z,92.91
2022-08-20T04:53:07.248Z,93.03
2022-08-20T04:54:02.298Z,93.09
2022-08-20T04:54:57.334Z,93.10
2022-08-20T04:55:52.379Z,93.01
2022-08-20T04:56:47.413Z,93.02
2022-08-20T04:57:42.509Z,92.98
2022-08-20T04:58:37.524Z,92.99
2022-08-20T04:59:32.554Z,92.96
2022-08-20T05:00:27.600Z,92.90
2022-08-20T05:01:22.643Z,92.82
2022-08-20T05:02:17.696Z,92.82
2022-08-20T05:03:12.737Z,92.67
2022-08-20T05:04:07.795Z,92.70
2022-08-20T05:05:02.902Z,92.70
2022-08-20T05:05:57.975Z,92.72
2022-08-20T05:06:52.995Z,92.73
2022-08-20T05:07:48.362Z,92.67
2022-08-20T05:08:43.700Z,92.56
2022-08-20T05:09:43.702Z,92.49
2022-08-20T05:10:36.913Z,92.51
2022-08-20T05:11:35.924Z,92.51
2022-08-20T05:12:27.811Z,92.51
2022-08-20T05:13:25.384Z,92.62
2022-08-20T05:14:18.569Z,92.60
2022-08-20T05:15:13.009Z,92.61
2022-08-20T05:16:08.358Z,92.70
2022-08-20T05:17:03.738Z,92.68
2022-08-20T05:17:59.111Z,92.60
2022-08-20T05:18:54.508Z,92.54
2022-08-20T05:19:49.982Z,92.66
2022-08-20T05:20:45.240Z,92.87
2022-08-20T05:21:40.589Z,92.99
2022-08-20T05:22:35.967Z,92.92
2022-08-20T05:23:31.348Z,92.93
2022-08-20T05:24:26.772Z,92.96
2022-08-20T05:25:22.203Z,93.06
2022-08-20T05:26:21.668Z,93.13
2022-08-20T05:27:25.030Z,93.04
2022-08-20T05:28:13.407Z,92.95
2022-08-20T05:29:07.841Z,92.88
2022-08-20T05:30:03.180Z,92.76
2022-08-20T05:30:58.508Z,92.54
2022-08-20T05:31:53.857Z,92.49
2022-08-20T05:32:49.357Z,92.40
2022-08-20T05:33:44.581Z,92.39
2022-08-20T05:34:39.958Z,92.23
2022-08-20T05:35:35.352Z,92.10
2022-08-20T05:36:30.744Z,92.07
2022-08-20T05:37:26.065Z,92.09
2022-08-20T05:38:21.446Z,92.03
2022-08-20T05:39:16.821Z,92.01
2022-08-20T05:40:12.271Z,91.93
2022-08-20T05:41:07.504Z,91.88
2022-08-20T05:42:02.845Z,91.77
2022-08-20T05:42:57.898Z,91.81
2022-08-20T05:43:53.112Z,91.67
2022-08-20T05:44:48.222Z,91.51
2022-08-20T05:45:43.201Z,91.30
2022-08-20T05:46:38.283Z,91.13
2022-08-20T05:47:33.346Z,91.00
2022-08-20T05:48:29.469Z,91.05
2022-08-20T05:49:23.496Z,91.16
2022-08-20T05:50:19.922Z,91.18
2022-08-20T05:51:15.295Z,91.21
2022-08-20T05:52:08.676Z,91.38
2022-08-20T05:53:03.854Z,91.24
2022-08-20T05:53:59.744Z,91.08
2022-08-20T05:54:53.771Z,91.00
2022-08-20T05:55:48.852Z,91.00
2022-08-20T05:56:43.966Z,91.10
2022-08-20T05:57:39.037Z,91.12
2022-08-20T05:58:35.693Z,91.09
2022-08-20T05:59:31.081Z,91.12
2022-08-20T06:00:26.422Z,90.96
2022-08-20T06:01:21.843Z,90.82
2022-08-20T06:02:19.405Z,90.99
2022-08-20T06:03:14.856Z,91.18
2022-08-20T06:04:10.217Z,91.42
2022-08-20T06:05:05.600Z,91.31
2022-08-20T06:06:01.112Z,91.23
2022-08-20T06:06:56.596Z,91.09
2022-08-20T06:07:51.917Z,90.89
2022-08-20T06:08:47.244Z,90.81
2022-08-20T06:09:44.482Z,90.86
2022-08-20T06:10:38.020Z,90.79
2022-08-20T06:11:37.022Z,90.79
2022-08-20T06:12:28.752Z,90.84
2022-08-20T06:13:24.102Z,90.94
2022-08-20T06:14:19.605Z,90.92
2022-08-20T06:15:14.816Z,90.82
2022-08-20T06:16:10.304Z,90.84
2022-08-20T06:17:05.728Z,90.84
2022-08-20T06:18:01.315Z,90.89
2022-08-20T06:18:58.100Z,90.90
2022-08-20T06:19:51.416Z,90.99
2022-08-20T06:20:46.589Z,90.88
2022-08-20T06:21:41.803Z,90.80
2022-08-20T06:22:36.921Z,90.70
2022-08-20T06:23:45.532Z,90.63
2022-08-20T06:24:28.113Z,90.69
2022-08-20T06:25:23.601Z,90.84
2022-08-20T06:26:30.469Z,90.93
2022-08-20T06:27:14.787Z,90.96
2022-08-20T06:28:08.795Z,90.99
2022-08-20T06:29:03.918Z,91.03
2022-08-20T06:29:58.898Z,91.10
2022-08-20T06:30:53.971Z,91.26
2022-08-20T06:31:49.362Z,91.19
2022-08-20T06:32:45.081Z,90.98
2022-08-20T06:33:40.433Z,90.89
2022-08-20T06:34:35.842Z,90.83
2022-08-20T06:35:31.199Z,90.83
2022-08-20T06:36:26.553Z,90.81
2022-08-20T06:37:21.934Z,90.85
2022-08-20T06:38:17.271Z,90.86
2022-08-20T06:39:12.821Z,90.76
2022-08-20T06:40:08.122Z,90.79
2022-08-20T06:41:03.484Z,90.92
2022-08-20T06:41:58.901Z,91.13
2022-08-20T06:42:54.226Z,91.17
2022-08-20T06:43:49.609Z,91.15
2022-08-20T06:44:45.012Z,91.12
2022-08-20T06:45:40.085Z,91.10
2022-08-20T06:46:35.146Z,91.04
2022-08-20T06:47:30.293Z,90.99
2022-08-20T06:48:27.140Z,90.96
2022-08-20T06:49:22.203Z,90.96
2022-08-20T06:50:17.594Z,90.91
2022-08-20T06:51:12.420Z,90.91
2022-08-20T06:52:07.508Z,91.01
2022-08-20T06:53:02.587Z,91.17
2022-08-20T06:53:57.720Z,91.09
2022-08-20T06:54:52.843Z,91.03
2022-08-20T06:55:48.450Z,90.89
2022-08-20T06:56:43.263Z,90.70
2022-08-20T06:57:38.616Z,90.53
2022-08-20T06:58:37.896Z,90.48
2022-08-20T06:59:29.364Z,90.58
2022-08-20T07:00:24.720Z,90.60
2022-08-20T07:01:20.123Z,90.63
2022-08-20T07:02:15.454Z,90.60
2022-08-20T07:03:10.830Z,90.48
2022-08-20T07:04:06.184Z,90.43
2022-08-20T07:05:01.714Z,90.42
2022-08-20T07:05:56.973Z,90.27
2022-08-20T07:06:52.329Z,90.06
2022-08-20T07:07:47.697Z,89.77
2022-08-20T07:08:43.083Z,89.63
2022-08-20T07:09:38.469Z,89.42
2022-08-20T07:10:33.851Z,89.28
2022-08-20T07:11:29.246Z,89.25
2022-08-20T07:12:24.564Z,89.13
2022-08-20T07:13:19.968Z,89.16
2022-08-20T07:14:15.340Z,89.17
2022-08-20T07:15:10.825Z,89.12
2022-08-20T07:16:06.076Z,89.16
2022-08-20T07:17:01.477Z,89.11
2022-08-20T07:18:00.912Z,89.07
2022-08-20T07:18:52.314Z,88.93
2022-08-20T07:19:47.696Z,88.74
2022-08-20T07:20:43.047Z,88.65
2022-08-20T07:21:38.426Z,88.65
2022-08-20T07:22:33.763Z,88.57
2022-08-20T07:23:29.230Z,88.29
2022-08-20T07:24:24.515Z,88.27
2022-08-20T07:25:20.949Z,88.36
2022-08-20T07:26:15.422Z,88.32
2022-08-20T07:27:10.963Z,88.50
2022-08-20T07:28:06.390Z,88.73
2022-08-20T07:29:01.873Z,88.72
2022-08-20T07:29:57.384Z,88.75
2022-08-20T07:30:56.745Z,88.89
2022-08-20T07:31:48.582Z,88.57
2022-08-20T07:32:45.358Z,88.37
2022-08-20T07:33:37.645Z,88.32
2022-08-20T07:34:32.769Z,88.34
2022-08-20T07:35:27.761Z,88.21
2022-08-20T07:36:22.810Z,88.01
2022-08-20T07:37:17.931Z,87.80
2022-08-20T07:38:12.974Z,87.32
2022-08-20T07:39:08.000Z,87.08
2022-08-20T07:40:03.116Z,87.06
2022-08-20T07:40:58.121Z,86.66
2022-08-20T07:41:56.600Z,86.52
2022-08-20T07:42:48.275Z,86.42
2022-08-20T07:43:43.457Z,85.91
2022-08-20T07:44:38.445Z,86.08
2022-08-20T07:45:33.458Z,86.16
2022-08-20T07:46:31.158Z,86.47
2022-08-20T07:47:23.761Z,86.51
2022-08-20T07:48:27.980Z,86.19
2022-08-20T07:49:15.668Z,85.82
2022-08-20T07:50:10.024Z,85.61
2022-08-20T07:51:05.704Z,85.43
2022-08-20T07:52:01.111Z,85.25
2022-08-20T07:52:56.710Z,84.96
2022-08-20T07:53:52.222Z,84.56
2022-08-20T07:54:47.617Z,84.44
2022-08-20T07:55:52.842Z,84.84
2022-08-20T07:56:40.575Z,84.93
2022-08-20T07:57:34.915Z,85.08
2022-08-20T07:58:33.247Z,84.71
2022-08-20T07:59:25.894Z,84.43
2022-08-20T08:00:21.460Z,84.14
2022-08-20T08:01:16.939Z,83.64
2022-08-20T08:02:12.069Z,83.63
2022-08-20T08:03:07.128Z,83.76
2022-08-20T08:04:02.156Z,83.40
2022-08-20T08:04:57.183Z,82.47
2022-08-20T08:05:52.193Z,82.54
2022-08-20T08:06:47.216Z,83.07
2022-08-20T08:07:43.035Z,83.83
2022-08-20T08:08:37.369Z,84.53
2022-08-20T08:09:32.401Z,84.97
2022-08-20T08:10:27.411Z,85.04
2022-08-20T08:11:22.392Z,85.41
2022-08-20T08:12:17.436Z,85.40
2022-08-20T08:13:12.562Z,85.39
2022-08-20T08:14:07.599Z,85.74
2022-08-20T08:15:02.605Z,85.87
2022-08-20T08:15:57.739Z,85.81
2022-08-20T08:16:52.901Z,86.17
2022-08-20T08:17:48.310Z,86.44
2022-08-20T08:18:43.881Z,86.72
2022-08-20T08:19:43.140Z,86.90
2022-08-20T08:20:38.539Z,86.96
2022-08-20T08:21:34.967Z,86.60
2022-08-20T08:22:29.456Z,86.64
2022-08-20T08:23:32.082Z,86.62
2022-08-20T08:24:25.367Z,86.86
2022-08-20T08:25:16.896Z,86.37
2022-08-20T08:26:18.731Z,86.67
2022-08-20T08:27:08.310Z,86.06
2022-08-20T08:28:02.815Z,85.67
2022-08-20T08:28:58.526Z,85.29
2022-08-20T08:29:53.920Z,84.98
2022-08-20T08:30:49.376Z,84.61
2022-08-20T08:31:44.833Z,84.14
2022-08-20T08:32:40.465Z,84.61
2022-08-20T08:33:35.514Z,84.36
2022-08-20T08:34:30.606Z,83.96
2022-08-20T08:35:25.710Z,84.30
2022-08-20T08:36:20.739Z,84.07
2022-08-20T08:37:15.794Z,84.14
2022-08-20T08:38:14.353Z,83.37
2022-08-20T08:39:05.926Z,83.87
2022-08-20T08:40:01.048Z,83.55
2022-08-20T08:40:59.789Z,82.93
2022-08-20T08:41:51.145Z,82.05
2022-08-20T08:42:47.198Z,82.21
2022-08-20T08:43:42.792Z,82.07
2022-08-20T08:44:38.266Z,81.92
2022-08-20T08:45:33.782Z,82.37
2022-08-20T08:46:29.382Z,81.99
2022-08-20T08:47:24.908Z,81.62
2022-08-20T08:48:20.290Z,81.40
2022-08-20T08:49:15.838Z,81.11
2022-08-20T08:50:11.256Z,81.26
2022-08-20T08:51:06.752Z,81.05
2022-08-20T08:52:02.188Z,81.50
2022-08-20T08:52:57.862Z,80.55
2022-08-20T08:53:53.165Z,79.85
2022-08-20T08:54:48.576Z,79.78
2022-08-20T08:55:44.140Z,79.72
2022-08-20T08:56:39.154Z,79.55
2022-08-20T08:57:34.227Z,79.53
2022-08-20T08:58:29.341Z,78.98
2022-08-20T08:59:24.432Z,79.25
2022-08-20T09:00:19.507Z,79.68
2022-08-20T09:01:55.498Z,80.04
2022-08-20T09:02:10.787Z,79.77
2022-08-20T09:03:04.771Z,79.34
2022-08-20T09:03:59.912Z,79.76
2022-08-20T09:04:54.880Z,79.93
2022-08-20T09:05:51.568Z,79.28
2022-08-20T09:06:50.424Z,79.58
2022-08-20T09:07:42.651Z,79.01
2022-08-20T09:08:36.751Z,79.49
2022-08-20T09:09:32.627Z,79.84
2022-08-20T09:10:27.997Z,80.41
2022-08-20T09:11:23.379Z,80.75
2022-08-20T09:12:18.982Z,80.74
2022-08-20T09:13:14.538Z,80.65
2022-08-20T09:14:10.067Z,79.65
2022-08-20T09:15:05.637Z,78.32
2022-08-20T09:16:00.948Z,76.58
2022-08-20T09:16:56.352Z,77.10
2022-08-20T09:17:51.895Z,77.93
2022-08-20T09:18:48.314Z,78.67
2022-08-20T09:19:43.725Z,78.42
2022-08-20T09:20:39.295Z,78.04
2022-08-20T09:21:34.610Z,77.80
2022-08-20T09:22:30.023Z,77.40
2022-08-20T09:23:25.466Z,77.07
2022-08-20T09:24:20.865Z,77.09
2022-08-20T09:25:16.209Z,76.91
2022-08-20T09:26:11.628Z,76.10
2022-08-20T09:27:07.013Z,76.47
2022-08-20T09:28:02.423Z,75.31
2022-08-20T09:28:57.882Z,75.70
2022-08-20T09:29:53.300Z,75.57
2022-08-20T09:30:48.775Z,76.07
2022-08-20T09:31:43.822Z,76.13
2022-08-20T09:32:38.834Z,77.18
2022-08-20T09:33:33.932Z,78.21
2022-08-20T09:34:29.007Z,77.01
2022-08-20T09:35:24.081Z,76.65
2022-08-20T09:36:28.732Z,75.50
2022-08-20T09:37:15.235Z,74.15
2022-08-20T09:38:09.343Z,74.10
2022-08-20T09:39:04.371Z,72.16
2022-08-20T09:39:59.533Z,71.93
2022-08-20T09:40:54.482Z,71.52
2022-08-20T09:41:49.530Z,70.93
2022-08-20T09:42:44.610Z,70.04
2022-08-20T09:43:39.640Z,70.64
2022-08-20T09:44:34.699Z,69.51
2022-08-20T09:45:29.772Z,69.30
2022-08-20T09:46:27.223Z,68.61
2022-08-20T09:47:19.861Z,68.79
2022-08-20T09:48:14.888Z,67.85
2022-08-20T09:49:10.524Z,66.38
2022-08-20T09:50:05.029Z,66.89
2022-08-20T09:51:00.129Z,67.62
2022-08-20T09:51:55.217Z,67.94
2022-08-20T09:52:50.531Z,68.49
2022-08-20T09:53:46.007Z,68.13
2022-08-20T09:54:46.216Z,68.07
2022-08-20T09:55:37.975Z,66.60
2022-08-20T09:56:32.501Z,67.00
2022-08-20T09:57:28.080Z,67.22
2022-08-20T09:58:23.526Z,66.51
2022-08-20T09:59:19.035Z,66.31
2022-08-20T10:00:15.852Z,66.45
2022-08-20T10:01:14.211Z,66.85
2022-08-20T10:02:06.800Z,66.73
2022-08-20T10:03:02.216Z,67.09
2022-08-20T10:03:57.704Z,66.47
2022-08-20T10:04:53.192Z,66.57
2022-08-20T10:05:48.787Z,66.30
2022-08-20T10:06:44.244Z,65.44
2022-08-20T10:07:40.170Z,65.80
2022-08-20T10:08:35.666Z,66.03
2022-08-20T10:09:31.223Z,65.94
2022-08-20T10:10:26.584Z,65.94
2022-08-20T10:11:22.066Z,66.16
2022-08-20T10:12:17.538Z,65.75
2022-08-20T10:13:13.374Z,66.83
2022-08-20T10:14:08.884Z,65.93
2022-08-20T10:15:04.213Z,66.79
2022-08-20T10:15:59.672Z,66.80
2022-08-20T10:16:55.151Z,66.23
2022-08-20T10:17:50.655Z,66.86
2022-08-20T10:18:46.248Z,66.71
2022-08-20T10:19:41.758Z,67.01
2022-08-20T10:20:40.429Z,67.09
2022-08-20T10:21:38.830Z,66.30
2022-08-20T10:22:31.190Z,66.55
2022-08-20T10:23:26.615Z,66.74
2022-08-20T10:24:22.023Z,67.43
2022-08-20T10:25:17.461Z,67.30
2022-08-20T10:26:12.895Z,67.58
2022-08-20T10:27:08.483Z,67.98
2022-08-20T10:28:03.964Z,68.10
2022-08-20T10:28:59.463Z,68.12
2022-08-20T10:29:55.079Z,66.79
2022-08-20T10:30:50.538Z,67.15
2022-08-20T10:31:46.031Z,67.12
2022-08-20T10:32:41.489Z,66.94
2022-08-20T10:33:36.981Z,67.53
2022-08-20T10:34:32.062Z,67.53
2022-08-20T10:35:27.111Z,67.55
2022-08-20T10:36:22.204Z,66.11
2022-08-20T10:37:17.238Z,66.65
2022-08-20T10:38:12.315Z,66.57
2022-08-20T10:39:07.400Z,66.61
2022-08-20T10:40:02.507Z,67.15
2022-08-20T10:40:57.474Z,67.09
2022-08-20T10:41:52.541Z,67.66
2022-08-20T10:42:47.602Z,66.23
2022-08-20T10:43:43.902Z,65.81
2022-08-20T10:44:38.965Z,66.23
2022-08-20T10:45:34.016Z,66.43
2022-08-20T10:46:29.094Z,66.22
2022-08-20T10:47:25.107Z,66.87
2022-08-20T10:48:21.635Z,65.96
2022-08-20T10:49:16.110Z,65.99
2022-08-20T10:50:11.560Z,66.02
2022-08-20T10:51:07.136Z,65.31
2022-08-20T10:52:02.505Z,65.48
2022-08-20T10:52:58.036Z,65.22
2022-08-20T10:53:53.769Z,65.14
2022-08-20T10:54:49.101Z,65.88
2022-08-20T10:55:44.540Z,64.81
2022-08-20T10:56:40.032Z,64.90
2022-08-20T10:57:35.502Z,64.34
2022-08-20T10:58:39.632Z,64.42
2022-08-20T10:59:27.515Z,64.61
2022-08-20T11:00:21.498Z,65.01
2022-08-20T11:01:31.395Z,64.79
2022-08-20T11:02:12.791Z,65.61
2022-08-20T11:03:06.914Z,67.36
2022-08-20T11:04:01.805Z,67.51
2022-08-20T11:04:56.866Z,68.18
2022-08-20T11:05:51.933Z,68.07
2022-08-20T11:06:49.319Z,68.47
2022-08-20T11:07:55.610Z,68.47
2022-08-20T11:08:41.225Z,69.33
2022-08-20T11:09:35.754Z,68.85
2022-08-20T11:10:31.335Z,69.23
2022-08-20T11:11:26.793Z,69.70
2022-08-20T11:12:22.294Z,69.47
2022-08-20T11:13:17.911Z,70.64
2022-08-20T11:14:13.366Z,70.64
2022-08-20T11:15:09.218Z,70.57
2022-08-20T11:16:04.401Z,69.85
2022-08-20T11:16:59.791Z,69.78
2022-08-20T11:17:55.382Z,69.96
2022-08-20T11:18:50.640Z,70.11
2022-08-20T11:19:46.045Z,70.26
2022-08-20T11:20:41.501Z,70.22
2022-08-20T11:21:36.947Z,70.53
2022-08-20T11:22:32.475Z,70.64
2022-08-20T11:23:27.780Z,70.55
2022-08-20T11:24:23.145Z,70.87
2022-08-20T11:25:18.588Z,70.91
2022-08-20T11:26:14.009Z,70.90
2022-08-20T11:27:09.413Z,71.10
2022-08-20T11:28:04.829Z,70.14
2022-08-20T11:29:04.397Z,70.66
2022-08-20T11:29:59.791Z,70.87
2022-08-20T11:30:55.189Z,70.99
2022-08-20T11:31:50.606Z,71.81
2022-08-20T11:32:46.000Z,71.91
2022-08-20T11:33:41.636Z,71.38
2022-08-20T11:34:36.788Z,72.22
2022-08-20T11:35:43.333Z,72.99
2022-08-20T11:36:29.146Z,73.45
2022-08-20T11:37:23.439Z,74.12
2022-08-20T11:38:18.468Z,74.98
2022-08-20T11:39:13.585Z,75.79
2022-08-20T11:40:08.638Z,76.28
2022-08-20T11:41:03.647Z,76.84
2022-08-20T11:41:58.662Z,77.51
2022-08-20T11:43:13.809Z,79.51
2022-08-20T11:44:10.422Z,81.96
2022-08-20T11:44:44.887Z,83.99
2022-08-20T11:45:38.963Z,84.75
2022-08-20T11:46:33.965Z,85.04
2022-08-20T11:47:28.976Z,84.60
2022-08-20T11:48:24.094Z,86.32
2022-08-20T11:49:19.094Z,87.15
2022-08-20T11:50:14.238Z,87.65
2022-08-20T11:51:10.359Z,87.97
2022-08-20T11:52:08.991Z,87.74
2022-08-20T11:53:04.410Z,88.42